McShan, Alabama
Current Conditions -  °F | °C
As of 3:58 AM on Friday 21 Nov 2014 (Local Time) from KCBM Reporting Station
Broken Clouds Broken Clouds  
Wind Chill: 44°   Ceiling: 5500
Heat Index: 44°   Visibility: 10mi
Dew Point: 41°   Wind: 2mph
Humidity: 89%   Direction: 100°E
Pressure: 30.28"   Gusts: NA
Location:  33.38°N, 88.14°W
Report Text: KCBM 210958Z AUTO 10002KT 10SM BKN055 BKN070 BKN095 07/05 A3028 RMK AO2 CIG 050 RWY13C SLP257 T00690052 $
Loading
Personal Weather Stations






























Interactive Weather Map New forecast layout! Learn more

10-Day Weather Forecast

Advertisements
Track Severe Weather on mobile